sensor_id;sensor_type;location;lat;lon;timestamp;P1;durP1;ratioP1;P2;durP2;ratioP2
61785;SDS011;47692;53.714;11.372;2023-04-24T00:01:20;5.07;;;2.80;;
61785;SDS011;47692;53.714;11.372;2023-04-24T00:03:46;4.50;;;3.15;;
61785;SDS011;47692;53.714;11.372;2023-04-24T00:06:11;4.07;;;3.00;;
61785;SDS011;47692;53.714;11.372;2023-04-24T00:08:36;6.00;;;2.65;;
61785;SDS011;47692;53.714;11.372;2023-04-24T00:11:02;6.10;;;3.20;;
61785;SDS011;47692;53.714;11.372;2023-04-24T00:13:28;4.05;;;2.83;;
61785;SDS011;47692;53.714;11.372;2023-04-24T00:15:53;5.75;;;2.88;;
61785;SDS011;47692;53.714;11.372;2023-04-24T00:18:19;4.32;;;3.13;;
61785;SDS011;47692;53.714;11.372;2023-04-24T00:20:45;4.70;;;2.90;;
61785;SDS011;47692;53.714;11.372;2023-04-24T00:23:11;4.78;;;3.00;;
61785;SDS011;47692;53.714;11.372;2023-04-24T00:25:37;4.13;;;2.92;;
61785;SDS011;47692;53.714;11.372;2023-04-24T00:28:02;5.35;;;3.35;;
61785;SDS011;47692;53.714;11.372;2023-04-24T00:30:27;5.50;;;3.03;;
61785;SDS011;47692;53.714;11.372;2023-04-24T00:32:53;4.20;;;2.60;;
61785;SDS011;47692;53.714;11.372;2023-04-24T00:35:19;7.25;;;3.30;;
61785;SDS011;47692;53.714;11.372;2023-04-24T00:37:45;5.20;;;3.38;;
61785;SDS011;47692;53.714;11.372;2023-04-24T00:40:10;4.50;;;2.92;;
61785;SDS011;47692;53.714;11.372;2023-04-24T00:42:36;8.30;;;2.88;;
61785;SDS011;47692;53.714;11.372;2023-04-24T00:45:01;5.32;;;2.85;;
61785;SDS011;47692;53.714;11.372;2023-04-24T00:47:28;4.68;;;3.03;;
61785;SDS011;47692;53.714;11.372;2023-04-24T00:49:53;4.53;;;2.72;;
61785;SDS011;47692;53.714;11.372;2023-04-24T00:52:19;6.40;;;3.05;;
61785;SDS011;47692;53.714;11.372;2023-04-24T00:54:45;5.00;;;3.15;;
61785;SDS011;47692;53.714;11.372;2023-04-24T00:57:10;5.32;;;3.25;;
61785;SDS011;47692;53.714;11.372;2023-04-24T00:59:37;5.50;;;3.15;;
61785;SDS011;47692;53.714;11.372;2023-04-24T01:02:03;4.75;;;3.30;;
61785;SDS011;47692;53.714;11.372;2023-04-24T01:04:29;5.93;;;3.17;;
61785;SDS011;47692;53.714;11.372;2023-04-24T01:06:54;4.10;;;2.90;;
61785;SDS011;47692;53.714;11.372;2023-04-24T01:09:21;4.57;;;2.97;;
61785;SDS011;47692;53.714;11.372;2023-04-24T01:11:48;4.40;;;3.00;;
61785;SDS011;47692;53.714;11.372;2023-04-24T01:14:14;6.32;;;3.10;;
61785;SDS011;47692;53.714;11.372;2023-04-24T01:16:40;4.40;;;2.80;;
61785;SDS011;47692;53.714;11.372;2023-04-24T01:19:06;4.60;;;3.00;;
61785;SDS011;47692;53.714;11.372;2023-04-24T01:21:34;5.30;;;2.80;;
61785;SDS011;47692;53.714;11.372;2023-04-24T01:24:01;4.82;;;3.15;;
61785;SDS011;47692;53.714;11.372;2023-04-24T01:26:27;5.95;;;2.88;;
61785;SDS011;47692;53.714;11.372;2023-04-24T01:28:52;5.10;;;3.25;;
61785;SDS011;47692;53.714;11.372;2023-04-24T01:31:18;5.80;;;2.90;;
61785;SDS011;47692;53.714;11.372;2023-04-24T01:33:44;4.32;;;3.03;;
61785;SDS011;47692;53.714;11.372;2023-04-24T01:36:10;6.53;;;3.30;;
61785;SDS011;47692;53.714;11.372;2023-04-24T01:38:36;5.25;;;3.08;;
61785;SDS011;47692;53.714;11.372;2023-04-24T01:41:01;5.38;;;3.22;;
61785;SDS011;47692;53.714;11.372;2023-04-24T01:43:27;6.03;;;3.83;;
61785;SDS011;47692;53.714;11.372;2023-04-24T01:45:53;6.00;;;3.63;;
61785;SDS011;47692;53.714;11.372;2023-04-24T01:48:18;5.20;;;3.42;;
61785;SDS011;47692;53.714;11.372;2023-04-24T01:50:44;5.90;;;3.78;;
61785;SDS011;47692;53.714;11.372;2023-04-24T01:53:09;5.53;;;3.25;;
61785;SDS011;47692;53.714;11.372;2023-04-24T01:55:34;5.75;;;3.75;;
61785;SDS011;47692;53.714;11.372;2023-04-24T01:58:00;7.28;;;3.53;;
61785;SDS011;47692;53.714;11.372;2023-04-24T02:00:26;7.13;;;4.18;;
61785;SDS011;47692;53.714;11.372;2023-04-24T02:02:51;6.13;;;3.90;;
61785;SDS011;47692;53.714;11.372;2023-04-24T02:05:17;5.25;;;3.75;;
61785;SDS011;47692;53.714;11.372;2023-04-24T02:07:42;8.30;;;4.47;;
61785;SDS011;47692;53.714;11.372;2023-04-24T02:10:07;7.10;;;3.58;;
61785;SDS011;47692;53.714;11.372;2023-04-24T02:12:33;6.10;;;3.78;;
61785;SDS011;47692;53.714;11.372;2023-04-24T02:14:58;6.05;;;3.95;;
61785;SDS011;47692;53.714;11.372;2023-04-24T02:17:24;6.00;;;4.10;;
61785;SDS011;47692;53.714;11.372;2023-04-24T02:19:49;6.28;;;3.83;;
61785;SDS011;47692;53.714;11.372;2023-04-24T02:22:14;5.25;;;3.70;;
61785;SDS011;47692;53.714;11.372;2023-04-24T02:24:40;6.20;;;3.90;;
61785;SDS011;47692;53.714;11.372;2023-04-24T02:27:06;5.38;;;3.85;;
61785;SDS011;47692;53.714;11.372;2023-04-24T02:29:31;5.32;;;3.85;;
61785;SDS011;47692;53.714;11.372;2023-04-24T02:31:57;6.97;;;3.92;;
61785;SDS011;47692;53.714;11.372;2023-04-24T02:34:22;6.93;;;3.72;;
61785;SDS011;47692;53.714;11.372;2023-04-24T02:36:48;8.60;;;4.00;;
61785;SDS011;47692;53.714;11.372;2023-04-24T02:39:14;7.35;;;3.83;;
61785;SDS011;47692;53.714;11.372;2023-04-24T02:41:41;4.70;;;3.67;;
61785;SDS011;47692;53.714;11.372;2023-04-24T02:44:07;6.72;;;4.15;;
61785;SDS011;47692;53.714;11.372;2023-04-24T02:46:32;5.68;;;4.00;;
61785;SDS011;47692;53.714;11.372;2023-04-24T02:48:58;10.00;;;4.35;;
61785;SDS011;47692;53.714;11.372;2023-04-24T02:51:23;6.50;;;4.30;;
61785;SDS011;47692;53.714;11.372;2023-04-24T02:53:48;7.22;;;4.13;;
61785;SDS011;47692;53.714;11.372;2023-04-24T02:56:13;4.88;;;3.33;;
61785;SDS011;47692;53.714;11.372;2023-04-24T02:58:39;7.07;;;4.35;;
61785;SDS011;47692;53.714;11.372;2023-04-24T03:01:04;7.63;;;4.45;;
61785;SDS011;47692;53.714;11.372;2023-04-24T03:03:30;6.72;;;3.88;;
61785;SDS011;47692;53.714;11.372;2023-04-24T03:05:55;5.47;;;4.00;;
61785;SDS011;47692;53.714;11.372;2023-04-24T03:08:22;6.18;;;3.95;;
61785;SDS011;47692;53.714;11.372;2023-04-24T03:10:47;6.07;;;3.95;;
61785;SDS011;47692;53.714;11.372;2023-04-24T03:13:12;6.63;;;4.05;;
61785;SDS011;47692;53.714;11.372;2023-04-24T03:15:38;6.32;;;4.35;;
61785;SDS011;47692;53.714;11.372;2023-04-24T03:18:03;6.43;;;4.13;;
61785;SDS011;47692;53.714;11.372;2023-04-24T03:20:29;7.05;;;4.43;;
61785;SDS011;47692;53.714;11.372;2023-04-24T03:22:54;7.00;;;4.20;;
61785;SDS011;47692;53.714;11.372;2023-04-24T03:25:19;6.65;;;4.28;;
61785;SDS011;47692;53.714;11.372;2023-04-24T03:27:45;6.95;;;4.50;;
61785;SDS011;47692;53.714;11.372;2023-04-24T03:30:11;10.65;;;6.18;;
61785;SDS011;47692;53.714;11.372;2023-04-24T03:32:36;12.80;;;8.25;;
61785;SDS011;47692;53.714;11.372;2023-04-24T03:35:01;7.88;;;4.15;;
61785;SDS011;47692;53.714;11.372;2023-04-24T03:37:28;6.47;;;4.03;;
61785;SDS011;47692;53.714;11.372;2023-04-24T03:39:53;8.32;;;5.03;;
61785;SDS011;47692;53.714;11.372;2023-04-24T03:42:18;7.18;;;4.93;;
61785;SDS011;47692;53.714;11.372;2023-04-24T03:44:44;7.88;;;5.03;;
61785;SDS011;47692;53.714;11.372;2023-04-24T03:47:09;7.78;;;4.90;;
61785;SDS011;47692;53.714;11.372;2023-04-24T03:49:35;7.88;;;4.90;;
61785;SDS011;47692;53.714;11.372;2023-04-24T03:52:00;7.75;;;4.25;;
61785;SDS011;47692;53.714;11.372;2023-04-24T03:54:25;7.75;;;4.28;;
61785;SDS011;47692;53.714;11.372;2023-04-24T03:56:51;8.05;;;4.13;;
61785;SDS011;47692;53.714;11.372;2023-04-24T03:59:17;11.23;;;4.82;;
61785;SDS011;47692;53.714;11.372;2023-04-24T04:01:42;9.18;;;4.50;;
61785;SDS011;47692;53.714;11.372;2023-04-24T04:04:07;6.55;;;4.57;;
61785;SDS011;47692;53.714;11.372;2023-04-24T04:06:33;7.13;;;4.53;;
61785;SDS011;47692;53.714;11.372;2023-04-24T04:08:59;6.15;;;4.35;;
61785;SDS011;47692;53.714;11.372;2023-04-24T04:11:25;6.22;;;3.97;;
61785;SDS011;47692;53.714;11.372;2023-04-24T04:13:50;6.40;;;4.20;;
61785;SDS011;47692;53.714;11.372;2023-04-24T04:16:16;5.90;;;4.03;;
61785;SDS011;47692;53.714;11.372;2023-04-24T04:18:42;7.07;;;3.95;;
61785;SDS011;47692;53.714;11.372;2023-04-24T04:21:08;6.22;;;4.15;;
61785;SDS011;47692;53.714;11.372;2023-04-24T04:23:33;7.10;;;4.65;;
61785;SDS011;47692;53.714;11.372;2023-04-24T04:25:58;6.22;;;4.07;;
61785;SDS011;47692;53.714;11.372;2023-04-24T04:28:24;8.55;;;5.03;;
61785;SDS011;47692;53.714;11.372;2023-04-24T04:30:50;6.55;;;3.92;;
61785;SDS011;47692;53.714;11.372;2023-04-24T04:33:19;5.88;;;3.90;;
61785;SDS011;47692;53.714;11.372;2023-04-24T04:35:45;6.55;;;4.05;;
61785;SDS011;47692;53.714;11.372;2023-04-24T04:38:13;6.22;;;4.15;;
61785;SDS011;47692;53.714;11.372;2023-04-24T04:40:40;5.32;;;3.38;;
61785;SDS011;47692;53.714;11.372;2023-04-24T04:43:05;5.05;;;3.33;;
61785;SDS011;47692;53.714;11.372;2023-04-24T04:45:31;7.10;;;3.60;;
61785;SDS011;47692;53.714;11.372;2023-04-24T04:47:57;4.47;;;3.08;;
61785;SDS011;47692;53.714;11.372;2023-04-24T04:50:25;4.53;;;3.22;;
61785;SDS011;47692;53.714;11.372;2023-04-24T04:52:51;7.47;;;3.38;;
61785;SDS011;47692;53.714;11.372;2023-04-24T04:55:16;7.10;;;3.22;;
61785;SDS011;47692;53.714;11.372;2023-04-24T04:57:43;4.45;;;2.97;;
61785;SDS011;47692;53.714;11.372;2023-04-24T05:00:08;5.13;;;3.10;;
61785;SDS011;47692;53.714;11.372;2023-04-24T05:02:35;7.65;;;3.58;;
61785;SDS011;47692;53.714;11.372;2023-04-24T05:05:00;5.30;;;3.28;;
61785;SDS011;47692;53.714;11.372;2023-04-24T05:07:26;4.53;;;3.20;;
61785;SDS011;47692;53.714;11.372;2023-04-24T05:09:51;5.97;;;3.60;;
61785;SDS011;47692;53.714;11.372;2023-04-24T05:12:17;4.38;;;3.38;;
61785;SDS011;47692;53.714;11.372;2023-04-24T05:14:42;5.82;;;4.13;;
61785;SDS011;47692;53.714;11.372;2023-04-24T05:17:07;5.97;;;3.63;;
61785;SDS011;47692;53.714;11.372;2023-04-24T05:19:33;5.10;;;3.40;;
61785;SDS011;47692;53.714;11.372;2023-04-24T05:22:00;5.85;;;3.50;;
61785;SDS011;47692;53.714;11.372;2023-04-24T05:24:28;4.47;;;3.13;;
61785;SDS011;47692;53.714;11.372;2023-04-24T05:26:53;5.25;;;3.47;;
61785;SDS011;47692;53.714;11.372;2023-04-24T05:29:18;6.55;;;4.15;;
61785;SDS011;47692;53.714;11.372;2023-04-24T05:31:44;6.35;;;4.47;;
61785;SDS011;47692;53.714;11.372;2023-04-24T05:34:09;4.38;;;3.25;;
61785;SDS011;47692;53.714;11.372;2023-04-24T05:36:35;5.80;;;3.22;;
61785;SDS011;47692;53.714;11.372;2023-04-24T05:39:00;4.97;;;3.47;;
61785;SDS011;47692;53.714;11.372;2023-04-24T05:41:25;5.70;;;3.75;;
61785;SDS011;47692;53.714;11.372;2023-04-24T05:43:50;6.72;;;4.53;;
61785;SDS011;47692;53.714;11.372;2023-04-24T05:46:16;5.03;;;3.20;;
61785;SDS011;47692;53.714;11.372;2023-04-24T05:48:41;6.25;;;3.20;;
61785;SDS011;47692;53.714;11.372;2023-04-24T05:51:06;4.88;;;2.95;;
61785;SDS011;47692;53.714;11.372;2023-04-24T05:53:32;5.57;;;2.90;;
61785;SDS011;47692;53.714;11.372;2023-04-24T05:55:57;3.65;;;2.80;;
61785;SDS011;47692;53.714;11.372;2023-04-24T05:58:22;3.33;;;2.47;;
61785;SDS011;47692;53.714;11.372;2023-04-24T06:00:48;5.40;;;2.38;;
61785;SDS011;47692;53.714;11.372;2023-04-24T06:03:14;5.10;;;2.70;;
61785;SDS011;47692;53.714;11.372;2023-04-24T06:05:40;4.78;;;2.65;;
61785;SDS011;47692;53.714;11.372;2023-04-24T06:08:05;3.63;;;2.25;;
61785;SDS011;47692;53.714;11.372;2023-04-24T06:10:31;3.75;;;2.33;;
61785;SDS011;47692;53.714;11.372;2023-04-24T06:12:57;3.20;;;2.10;;
61785;SDS011;47692;53.714;11.372;2023-04-24T06:15:25;4.00;;;2.30;;
61785;SDS011;47692;53.714;11.372;2023-04-24T06:17:53;4.85;;;2.55;;
61785;SDS011;47692;53.714;11.372;2023-04-24T06:20:18;2.95;;;2.00;;
61785;SDS011;47692;53.714;11.372;2023-04-24T06:22:43;2.58;;;1.92;;
61785;SDS011;47692;53.714;11.372;2023-04-24T06:25:09;3.65;;;2.42;;
61785;SDS011;47692;53.714;11.372;2023-04-24T06:27:34;3.47;;;2.33;;
61785;SDS011;47692;53.714;11.372;2023-04-24T06:30:00;3.65;;;2.30;;
61785;SDS011;47692;53.714;11.372;2023-04-24T06:32:25;4.28;;;2.78;;
61785;SDS011;47692;53.714;11.372;2023-04-24T06:34:52;3.58;;;2.00;;
61785;SDS011;47692;53.714;11.372;2023-04-24T06:37:18;3.13;;;1.85;;
61785;SDS011;47692;53.714;11.372;2023-04-24T06:39:44;2.72;;;1.70;;
61785;SDS011;47692;53.714;11.372;2023-04-24T06:42:09;3.70;;;1.55;;
61785;SDS011;47692;53.714;11.372;2023-04-24T06:44:35;2.78;;;1.52;;
61785;SDS011;47692;53.714;11.372;2023-04-24T06:47:05;3.33;;;1.55;;
61785;SDS011;47692;53.714;11.372;2023-04-24T06:49:35;1.83;;;1.33;;
61785;SDS011;47692;53.714;11.372;2023-04-24T06:52:02;3.97;;;1.67;;
61785;SDS011;47692;53.714;11.372;2023-04-24T06:54:28;3.65;;;1.55;;
61785;SDS011;47692;53.714;11.372;2023-04-24T06:56:54;2.28;;;1.38;;
61785;SDS011;47692;53.714;11.372;2023-04-24T06:59:20;6.10;;;2.05;;
61785;SDS011;47692;53.714;11.372;2023-04-24T07:01:45;3.17;;;1.83;;
61785;SDS011;47692;53.714;11.372;2023-04-24T07:04:10;3.00;;;2.13;;
61785;SDS011;47692;53.714;11.372;2023-04-24T07:06:37;3.17;;;1.80;;
61785;SDS011;47692;53.714;11.372;2023-04-24T07:09:04;3.83;;;1.90;;
61785;SDS011;47692;53.714;11.372;2023-04-24T07:11:29;2.72;;;1.70;;
61785;SDS011;47692;53.714;11.372;2023-04-24T07:13:55;3.17;;;1.58;;
61785;SDS011;47692;53.714;11.372;2023-04-24T07:16:20;3.47;;;1.58;;
61785;SDS011;47692;53.714;11.372;2023-04-24T07:18:46;3.75;;;2.08;;
61785;SDS011;47692;53.714;11.372;2023-04-24T07:21:11;3.67;;;1.73;;
61785;SDS011;47692;53.714;11.372;2023-04-24T07:23:36;2.08;;;1.50;;
61785;SDS011;47692;53.714;11.372;2023-04-24T07:26:02;2.30;;;1.50;;
61785;SDS011;47692;53.714;11.372;2023-04-24T07:28:27;1.90;;;1.30;;
61785;SDS011;47692;53.714;11.372;2023-04-24T07:30:56;1.90;;;1.23;;
61785;SDS011;47692;53.714;11.372;2023-04-24T07:33:22;2.13;;;1.20;;
61785;SDS011;47692;53.714;11.372;2023-04-24T07:35:47;2.60;;;1.30;;
61785;SDS011;47692;53.714;11.372;2023-04-24T07:38:12;2.33;;;1.45;;
61785;SDS011;47692;53.714;11.372;2023-04-24T07:40:38;2.65;;;1.30;;
61785;SDS011;47692;53.714;11.372;2023-04-24T07:43:03;2.10;;;1.40;;
61785;SDS011;47692;53.714;11.372;2023-04-24T07:45:28;2.10;;;1.20;;
61785;SDS011;47692;53.714;11.372;2023-04-24T07:47:54;1.98;;;1.10;;
61785;SDS011;47692;53.714;11.372;2023-04-24T07:50:19;1.45;;;1.00;;
61785;SDS011;47692;53.714;11.372;2023-04-24T07:52:45;1.48;;;0.90;;
61785;SDS011;47692;53.714;11.372;2023-04-24T07:55:10;2.60;;;1.00;;
61785;SDS011;47692;53.714;11.372;2023-04-24T07:57:36;3.30;;;1.00;;
61785;SDS011;47692;53.714;11.372;2023-04-24T08:00:02;1.65;;;1.10;;
61785;SDS011;47692;53.714;11.372;2023-04-24T08:02:28;1.73;;;0.95;;
61785;SDS011;47692;53.714;11.372;2023-04-24T08:04:54;1.40;;;0.90;;
61785;SDS011;47692;53.714;11.372;2023-04-24T08:07:20;2.30;;;0.85;;
61785;SDS011;47692;53.714;11.372;2023-04-24T08:09:45;1.40;;;0.80;;
61785;SDS011;47692;53.714;11.372;2023-04-24T08:12:11;1.70;;;0.88;;
61785;SDS011;47692;53.714;11.372;2023-04-24T08:14:36;1.10;;;0.70;;
61785;SDS011;47692;53.714;11.372;2023-04-24T08:17:01;1.33;;;0.90;;
61785;SDS011;47692;53.714;11.372;2023-04-24T08:19:27;1.35;;;0.80;;
61785;SDS011;47692;53.714;11.372;2023-04-24T08:21:53;1.40;;;0.70;;
61785;SDS011;47692;53.714;11.372;2023-04-24T08:24:18;1.20;;;0.80;;
61785;SDS011;47692;53.714;11.372;2023-04-24T08:26:43;3.13;;;0.75;;
61785;SDS011;47692;53.714;11.372;2023-04-24T08:29:09;1.98;;;0.75;;
61785;SDS011;47692;53.714;11.372;2023-04-24T08:31:34;1.73;;;0.80;;
61785;SDS011;47692;53.714;11.372;2023-04-24T08:34:00;1.15;;;0.70;;
61785;SDS011;47692;53.714;11.372;2023-04-24T08:36:25;1.70;;;0.80;;
61785;SDS011;47692;53.714;11.372;2023-04-24T08:38:51;1.10;;;0.70;;
61785;SDS011;47692;53.714;11.372;2023-04-24T08:41:16;1.67;;;0.90;;
61785;SDS011;47692;53.714;11.372;2023-04-24T08:43:44;1.05;;;0.80;;
61785;SDS011;47692;53.714;11.372;2023-04-24T08:46:11;1.42;;;0.75;;
61785;SDS011;47692;53.714;11.372;2023-04-24T08:48:38;1.67;;;0.90;;
61785;SDS011;47692;53.714;11.372;2023-04-24T08:51:04;1.65;;;0.90;;
61785;SDS011;47692;53.714;11.372;2023-04-24T08:53:32;1.02;;;0.73;;
61785;SDS011;47692;53.714;11.372;2023-04-24T08:55:57;2.22;;;1.02;;
61785;SDS011;47692;53.714;11.372;2023-04-24T08:58:26;1.33;;;0.90;;
61785;SDS011;47692;53.714;11.372;2023-04-24T09:00:55;1.13;;;0.77;;
61785;SDS011;47692;53.714;11.372;2023-04-24T09:03:21;1.55;;;0.80;;
61785;SDS011;47692;53.714;11.372;2023-04-24T09:05:47;1.40;;;0.88;;
61785;SDS011;47692;53.714;11.372;2023-04-24T09:08:14;1.30;;;0.90;;
61785;SDS011;47692;53.714;11.372;2023-04-24T09:10:42;1.27;;;0.80;;
61785;SDS011;47692;53.714;11.372;2023-04-24T09:13:08;1.98;;;1.00;;
61785;SDS011;47692;53.714;11.372;2023-04-24T09:15:35;1.50;;;0.90;;
61785;SDS011;47692;53.714;11.372;2023-04-24T09:18:01;1.35;;;0.70;;
61785;SDS011;47692;53.714;11.372;2023-04-24T09:20:26;1.30;;;0.70;;
61785;SDS011;47692;53.714;11.372;2023-04-24T09:22:54;1.33;;;0.75;;
61785;SDS011;47692;53.714;11.372;2023-04-24T09:25:22;1.70;;;0.90;;
61785;SDS011;47692;53.714;11.372;2023-04-24T09:27:47;1.83;;;0.98;;
61785;SDS011;47692;53.714;11.372;2023-04-24T09:30:13;1.60;;;0.90;;
61785;SDS011;47692;53.714;11.372;2023-04-24T09:32:39;1.80;;;0.90;;
61785;SDS011;47692;53.714;11.372;2023-04-24T09:35:05;1.45;;;0.85;;
61785;SDS011;47692;53.714;11.372;2023-04-24T09:37:35;2.00;;;0.77;;
61785;SDS011;47692;53.714;11.372;2023-04-24T09:40:15;1.10;;;0.80;;
61785;SDS011;47692;53.714;11.372;2023-04-24T09:42:59;1.25;;;0.85;;
61785;SDS011;47692;53.714;11.372;2023-04-24T09:45:27;2.65;;;0.80;;
61785;SDS011;47692;53.714;11.372;2023-04-24T09:47:55;2.25;;;1.23;;
61785;SDS011;47692;53.714;11.372;2023-04-24T09:50:20;1.98;;;1.20;;
61785;SDS011;47692;53.714;11.372;2023-04-24T09:52:47;2.10;;;1.23;;
61785;SDS011;47692;53.714;11.372;2023-04-24T09:55:21;1.60;;;1.17;;
61785;SDS011;47692;53.714;11.372;2023-04-24T09:57:57;1.27;;;0.90;;
61785;SDS011;47692;53.714;11.372;2023-04-24T10:00:28;3.63;;;0.80;;
61785;SDS011;47692;53.714;11.372;2023-04-24T10:02:59;3.27;;;0.97;;
61785;SDS011;47692;53.714;11.372;2023-04-24T10:05:27;2.30;;;1.00;;
61785;SDS011;47692;53.714;11.372;2023-04-24T10:10:28;1.35;;;0.80;;
61785;SDS011;47692;53.714;11.372;2023-04-24T10:12:54;1.67;;;0.90;;
61785;SDS011;47692;53.714;11.372;2023-04-24T10:15:20;1.52;;;0.80;;
61785;SDS011;47692;53.714;11.372;2023-04-24T10:17:49;1.30;;;0.80;;
61785;SDS011;47692;53.714;11.372;2023-04-24T10:20:22;2.05;;;0.98;;
61785;SDS011;47692;53.714;11.372;2023-04-24T10:22:51;2.10;;;0.90;;
61785;SDS011;47692;53.714;11.372;2023-04-24T10:25:19;1.10;;;0.70;;
61785;SDS011;47692;53.714;11.372;2023-04-24T10:27:46;1.35;;;0.80;;
61785;SDS011;47692;53.714;11.372;2023-04-24T10:30:13;1.10;;;0.80;;
61785;SDS011;47692;53.714;11.372;2023-04-24T10:32:39;1.35;;;0.90;;
61785;SDS011;47692;53.714;11.372;2023-04-24T10:35:06;1.55;;;0.98;;
61785;SDS011;47692;53.714;11.372;2023-04-24T10:37:39;1.50;;;0.90;;
61785;SDS011;47692;53.714;11.372;2023-04-24T10:40:08;0.80;;;0.50;;
61785;SDS011;47692;53.714;11.372;2023-04-24T10:42:35;1.60;;;0.77;;
61785;SDS011;47692;53.714;11.372;2023-04-24T10:45:05;1.88;;;0.90;;
61785;SDS011;47692;53.714;11.372;2023-04-24T10:47:39;1.45;;;1.00;;
61785;SDS011;47692;53.714;11.372;2023-04-24T10:50:14;0.95;;;0.75;;
61785;SDS011;47692;53.714;11.372;2023-04-24T10:52:43;1.48;;;1.00;;
61785;SDS011;47692;53.714;11.372;2023-04-24T10:55:13;2.17;;;0.88;;
61785;SDS011;47692;53.714;11.372;2023-04-24T10:57:40;1.27;;;0.90;;
61785;SDS011;47692;53.714;11.372;2023-04-24T11:00:27;2.20;;;1.13;;
61785;SDS011;47692;53.714;11.372;2023-04-24T11:02:52;1.40;;;0.90;;
61785;SDS011;47692;53.714;11.372;2023-04-24T11:05:19;1.42;;;1.10;;
61785;SDS011;47692;53.714;11.372;2023-04-24T11:10:44;1.70;;;1.20;;
61785;SDS011;47692;53.714;11.372;2023-04-24T11:13:10;1.48;;;1.00;;
61785;SDS011;47692;53.714;11.372;2023-04-24T11:15:41;2.50;;;0.90;;
61785;SDS011;47692;53.714;11.372;2023-04-24T11:18:12;2.70;;;1.35;;
61785;SDS011;47692;53.714;11.372;2023-04-24T11:20:41;2.08;;;1.40;;
61785;SDS011;47692;53.714;11.372;2023-04-24T11:23:07;2.92;;;1.60;;
61785;SDS011;47692;53.714;11.372;2023-04-24T11:25:33;2.70;;;1.33;;
61785;SDS011;47692;53.714;11.372;2023-04-24T11:28:04;2.60;;;1.35;;
61785;SDS011;47692;53.714;11.372;2023-04-24T11:30:31;3.17;;;1.42;;
61785;SDS011;47692;53.714;11.372;2023-04-24T11:33:04;1.95;;;1.10;;
61785;SDS011;47692;53.714;11.372;2023-04-24T11:35:30;2.80;;;1.52;;
61785;SDS011;47692;53.714;11.372;2023-04-24T11:40:28;2.13;;;1.25;;
61785;SDS011;47692;53.714;11.372;2023-04-24T11:42:53;2.22;;;1.30;;
61785;SDS011;47692;53.714;11.372;2023-04-24T11:45:28;2.50;;;1.50;;
61785;SDS011;47692;53.714;11.372;2023-04-24T11:47:55;2.67;;;1.58;;
61785;SDS011;47692;53.714;11.372;2023-04-24T11:50:21;3.15;;;1.90;;
61785;SDS011;47692;53.714;11.372;2023-04-24T11:52:49;2.85;;;1.83;;
61785;SDS011;47692;53.714;11.372;2023-04-24T11:57:44;3.92;;;2.67;;
61785;SDS011;47692;53.714;11.372;2023-04-24T12:02:42;4.20;;;2.83;;
61785;SDS011;47692;53.714;11.372;2023-04-24T12:05:07;4.97;;;2.70;;
61785;SDS011;47692;53.714;11.372;2023-04-24T12:07:39;6.30;;;3.08;;
61785;SDS011;47692;53.714;11.372;2023-04-24T12:10:07;4.00;;;2.85;;
61785;SDS011;47692;53.714;11.372;2023-04-24T12:12:34;4.18;;;2.60;;
61785;SDS011;47692;53.714;11.372;2023-04-24T12:15:00;5.38;;;2.85;;
61785;SDS011;47692;53.714;11.372;2023-04-24T12:17:30;5.20;;;3.17;;
61785;SDS011;47692;53.714;11.372;2023-04-24T12:20:03;5.68;;;3.38;;
61785;SDS011;47692;53.714;11.372;2023-04-24T12:22:44;4.68;;;3.60;;
61785;SDS011;47692;53.714;11.372;2023-04-24T12:25:11;6.00;;;3.47;;
61785;SDS011;47692;53.714;11.372;2023-04-24T12:27:37;5.63;;;3.30;;
61785;SDS011;47692;53.714;11.372;2023-04-24T12:30:03;5.15;;;3.70;;
61785;SDS011;47692;53.714;11.372;2023-04-24T12:32:30;5.53;;;3.70;;
61785;SDS011;47692;53.714;11.372;2023-04-24T12:34:56;5.15;;;3.55;;
61785;SDS011;47692;53.714;11.372;2023-04-24T12:37:25;7.70;;;3.00;;
61785;SDS011;47692;53.714;11.372;2023-04-24T12:40:10;4.88;;;2.88;;
61785;SDS011;47692;53.714;11.372;2023-04-24T12:42:44;3.72;;;2.40;;
61785;SDS011;47692;53.714;11.372;2023-04-24T12:45:11;5.10;;;2.70;;
61785;SDS011;47692;53.714;11.372;2023-04-24T12:47:38;4.22;;;2.72;;
61785;SDS011;47692;53.714;11.372;2023-04-24T12:50:04;6.47;;;2.90;;
61785;SDS011;47692;53.714;11.372;2023-04-24T12:52:31;3.90;;;2.60;;
61785;SDS011;47692;53.714;11.372;2023-04-24T12:54:57;5.05;;;2.65;;
61785;SDS011;47692;53.714;11.372;2023-04-24T12:57:26;3.38;;;2.17;;
61785;SDS011;47692;53.714;11.372;2023-04-24T12:59:56;7.25;;;2.65;;
61785;SDS011;47692;53.714;11.372;2023-04-24T13:02:23;4.35;;;2.88;;
61785;SDS011;47692;53.714;11.372;2023-04-24T13:04:49;6.22;;;3.40;;
61785;SDS011;47692;53.714;11.372;2023-04-24T13:07:15;4.43;;;2.90;;
61785;SDS011;47692;53.714;11.372;2023-04-24T13:09:41;5.20;;;2.85;;
61785;SDS011;47692;53.714;11.372;2023-04-24T13:12:07;4.32;;;2.75;;
61785;SDS011;47692;53.714;11.372;2023-04-24T13:14:33;5.68;;;3.05;;
61785;SDS011;47692;53.714;11.372;2023-04-24T13:16:59;5.13;;;3.00;;
61785;SDS011;47692;53.714;11.372;2023-04-24T13:19:25;3.95;;;2.75;;
61785;SDS011;47692;53.714;11.372;2023-04-24T13:21:51;5.80;;;3.00;;
61785;SDS011;47692;53.714;11.372;2023-04-24T13:24:17;5.07;;;3.00;;
61785;SDS011;47692;53.714;11.372;2023-04-24T13:26:42;5.93;;;3.45;;
61785;SDS011;47692;53.714;11.372;2023-04-24T13:29:08;5.22;;;3.38;;
61785;SDS011;47692;53.714;11.372;2023-04-24T13:31:34;5.32;;;3.38;;
61785;SDS011;47692;53.714;11.372;2023-04-24T13:33:59;4.10;;;3.25;;
61785;SDS011;47692;53.714;11.372;2023-04-24T13:36:24;5.43;;;3.58;;
61785;SDS011;47692;53.714;11.372;2023-04-24T13:38:50;6.13;;;3.00;;
61785;SDS011;47692;53.714;11.372;2023-04-24T13:41:15;5.25;;;3.08;;
61785;SDS011;47692;53.714;11.372;2023-04-24T13:43:41;4.30;;;3.00;;
61785;SDS011;47692;53.714;11.372;2023-04-24T13:46:07;4.55;;;3.13;;
61785;SDS011;47692;53.714;11.372;2023-04-24T13:48:33;4.32;;;2.97;;
61785;SDS011;47692;53.714;11.372;2023-04-24T13:50:59;4.63;;;2.90;;
61785;SDS011;47692;53.714;11.372;2023-04-24T13:53:25;5.00;;;2.90;;
61785;SDS011;47692;53.714;11.372;2023-04-24T13:55:50;3.90;;;2.53;;
61785;SDS011;47692;53.714;11.372;2023-04-24T13:58:16;4.93;;;2.70;;
61785;SDS011;47692;53.714;11.372;2023-04-24T14:00:41;4.75;;;2.63;;
61785;SDS011;47692;53.714;11.372;2023-04-24T14:03:06;3.70;;;2.10;;
61785;SDS011;47692;53.714;11.372;2023-04-24T14:05:32;2.97;;;2.00;;
61785;SDS011;47692;53.714;11.372;2023-04-24T14:07:57;3.30;;;2.45;;
61785;SDS011;47692;53.714;11.372;2023-04-24T14:10:23;5.35;;;2.28;;
61785;SDS011;47692;53.714;11.372;2023-04-24T14:12:48;6.00;;;2.47;;
61785;SDS011;47692;53.714;11.372;2023-04-24T14:15:13;4.78;;;2.33;;
61785;SDS011;47692;53.714;11.372;2023-04-24T14:17:39;5.45;;;2.72;;
61785;SDS011;47692;53.714;11.372;2023-04-24T14:20:05;3.08;;;2.55;;
61785;SDS011;47692;53.714;11.372;2023-04-24T14:22:32;2.60;;;1.80;;
61785;SDS011;47692;53.714;11.372;2023-04-24T14:24:57;3.58;;;2.30;;
61785;SDS011;47692;53.714;11.372;2023-04-24T14:27:23;4.55;;;1.95;;
61785;SDS011;47692;53.714;11.372;2023-04-24T14:29:49;3.63;;;2.25;;
61785;SDS011;47692;53.714;11.372;2023-04-24T14:32:14;2.85;;;2.08;;
61785;SDS011;47692;53.714;11.372;2023-04-24T14:34:40;3.17;;;2.00;;
61785;SDS011;47692;53.714;11.372;2023-04-24T14:37:05;4.28;;;2.55;;
61785;SDS011;47692;53.714;11.372;2023-04-24T14:39:31;4.65;;;2.70;;
61785;SDS011;47692;53.714;11.372;2023-04-24T14:41:56;5.75;;;2.50;;